Time;durP1;ratioP1;P1;durP2;ratioP2;P2;SDS_P1;SDS_P2;PMS_P1;PMS_P2;Temp;Humidity;BMP_temperature;BMP_pressure;BME280_temperature;BME280_humidity;BME280_pressure;Samples;Min_cycle;Max_cycle;Signal;HPM_P1;HPM_P2
2023/07/21 00:00:37;;;;;;;;;;;13.40;99.90;;;;;;5091751;28;19940;-81
2023/07/21 00:03:03;;;;;;;;;;;13.40;99.90;;;;;;5073644;28;19940;-86
2023/07/21 00:05:28;;;;;;;;;;;13.40;99.90;;;;;;5092995;28;20398;-87
2023/07/21 00:07:54;;;;;;;;;;;13.40;99.90;;;;;;5089137;28;19979;-81
2023/07/21 00:10:20;;;;;;;;;;;13.30;99.90;;;;;;5070648;28;20393;-82
2023/07/21 00:12:48;;;;;;;;;;;13.20;99.90;;;;;;5088518;28;20010;-81
2023/07/21 00:15:16;;;;;;;;;;;13.20;99.90;;;;;;5070299;28;19932;-87
2023/07/21 00:17:49;;;;;;;;;;;13.20;99.90;;;;;;5084881;28;19928;-81
2023/07/21 00:20:19;;;;;;;;;;;13.20;99.90;;;;;;5081636;28;20474;-81
2023/07/21 00:22:45;;;;;;;;;;;13.20;99.90;;;;;;5085892;28;19925;-82
2023/07/21 00:25:11;;;;;;;;;;;13.30;99.90;;;;;;5088545;28;20374;-81
2023/07/21 00:27:39;;;;;;;;;;;13.30;99.90;;;;;;5089872;28;19932;-81
2023/07/21 00:30:08;;;;;;;;;;;13.30;99.90;;;;;;5085265;28;19938;-81
2023/07/21 00:32:37;;;;;;;;;;;13.30;99.90;;;;;;5084163;28;19931;-81
2023/07/21 00:35:08;;;;;;;;;;;13.40;99.90;;;;;;5055298;28;19924;-86
2023/07/21 00:37:37;;;;;;;;;;;13.40;99.90;;;;;;5087182;28;20014;-85
2023/07/21 00:40:04;;;;;;;;;;;13.40;99.90;;;;;;5086284;28;20014;-81
2023/07/21 00:42:30;;;;;;;;;;;13.40;99.90;;;;;;5085112;28;19928;-85
2023/07/21 00:44:56;;;;;;;;;;;13.40;99.90;;;;;;5069312;28;20441;-81
2023/07/21 00:47:23;;;;;;;;;;;13.40;99.90;;;;;;5086454;28;19928;-82
2023/07/21 00:49:49;;;;;;;;;;;13.40;99.90;;;;;;5086369;28;20396;-81
2023/07/21 00:52:17;;;;;;;;;;;13.30;99.90;;;;;;5085136;28;20294;-81
2023/07/21 00:54:43;;;;;;;;;;;13.30;99.90;;;;;;5085740;28;19928;-80
2023/07/21 00:57:09;;;;;;;;;;;13.40;99.90;;;;;;5086846;28;19928;-85
2023/07/21 00:59:35;;;;;;;;;;;13.40;99.90;;;;;;5086842;28;19924;-83
2023/07/21 01:02:01;;;;;;;;;;;13.40;99.90;;;;;;5089778;28;20378;-81
2023/07/21 01:04:26;;;;;;;;;;;13.50;99.90;;;;;;5087088;28;19932;-80
2023/07/21 01:06:52;;;;;;;;;;;13.50;99.90;;;;;;5086234;28;20425;-81
2023/07/21 01:09:19;;;;;;;;;;;13.60;99.90;;;;;;5068049;28;20025;-81
2023/07/21 01:11:45;;;;;;;;;;;13.60;99.90;;;;;;5087429;28;19932;-83
2023/07/21 01:14:10;;;;;;;;;;;13.60;99.90;;;;;;5086218;28;19966;-81
2023/07/21 01:16:43;;;;;;;;;;;13.50;99.90;;;;;;5072195;28;19967;-83
2023/07/21 01:19:12;;;;;;;;;;;13.50;99.90;;;;;;5087114;28;19981;-81
2023/07/21 01:21:40;;;;;;;;;;;13.50;99.90;;;;;;5085659;28;19932;-81
2023/07/21 01:24:38;;;;;;;;;;;13.50;99.90;;;;;;5070741;28;19924;-83
2023/07/21 01:27:05;;;;;;;;;;;13.50;99.90;;;;;;5033043;28;20431;-86
2023/07/21 01:29:33;;;;;;;;;;;13.60;99.90;;;;;;5089153;28;20523;-81
2023/07/21 01:31:59;;;;;;;;;;;13.50;99.90;;;;;;5085996;28;20291;-85
2023/07/21 01:34:25;;;;;;;;;;;13.50;99.90;;;;;;5067457;28;20260;-81
2023/07/21 01:36:51;;;;;;;;;;;13.50;99.90;;;;;;5069789;28;19935;-81
2023/07/21 01:39:17;;;;;;;;;;;13.50;99.90;;;;;;5087272;28;19931;-81
2023/07/21 01:41:43;;;;;;;;;;;13.50;99.90;;;;;;5087296;28;19963;-83
2023/07/21 01:44:09;;;;;;;;;;;13.40;99.90;;;;;;5068219;28;20198;-85
2023/07/21 01:46:34;;;;;;;;;;;13.40;99.90;;;;;;5070262;28;19928;-81
2023/07/21 01:49:00;;;;;;;;;;;13.40;99.90;;;;;;5081720;28;19924;-81
2023/07/21 01:51:27;;;;;;;;;;;13.40;99.90;;;;;;5068584;28;20030;-81
2023/07/21 01:53:54;;;;;;;;;;;13.40;99.90;;;;;;5086287;28;19953;-82
2023/07/21 01:56:40;;;;;;;;;;;13.40;99.90;;;;;;5084672;28;19928;-83
2023/07/21 01:59:07;;;;;;;;;;;13.40;99.90;;;;;;5088581;28;19923;-81
2023/07/21 02:01:33;;;;;;;;;;;13.40;99.90;;;;;;5081232;28;19924;-81
2023/07/21 02:03:58;;;;;;;;;;;13.40;99.90;;;;;;5089785;28;19970;-83
2023/07/21 02:06:24;;;;;;;;;;;13.40;99.90;;;;;;5065436;28;19924;-81
2023/07/21 02:08:50;;;;;;;;;;;13.40;99.90;;;;;;5092038;28;19928;-81
2023/07/21 02:11:15;;;;;;;;;;;13.30;99.90;;;;;;5093528;28;19931;-83
2023/07/21 02:13:41;;;;;;;;;;;13.40;99.90;;;;;;5090213;28;19932;-82
2023/07/21 02:16:07;;;;;;;;;;;13.40;99.90;;;;;;5071378;28;20557;-81
2023/07/21 02:18:33;;;;;;;;;;;13.40;99.90;;;;;;5083978;28;19977;-82
2023/07/21 02:21:02;;;;;;;;;;;13.40;99.90;;;;;;5068693;28;20375;-81
2023/07/21 02:23:28;;;;;;;;;;;13.40;99.90;;;;;;5065348;28;19928;-81
2023/07/21 02:25:54;;;;;;;;;;;13.40;99.90;;;;;;5069547;28;20008;-81
2023/07/21 02:28:19;;;;;;;;;;;13.40;99.90;;;;;;5084610;28;19934;-84
2023/07/21 02:30:45;;;;;;;;;;;13.30;99.90;;;;;;5085849;28;19983;-84
2023/07/21 02:33:10;;;;;;;;;;;13.30;99.90;;;;;;5067010;28;19928;-81
2023/07/21 02:35:36;;;;;;;;;;;13.30;99.90;;;;;;5070011;28;19935;-86
2023/07/21 02:38:03;;;;;;;;;;;13.30;99.90;;;;;;5067771;28;19967;-81
2023/07/21 02:40:31;;;;;;;;;;;13.30;99.90;;;;;;5086923;28;19978;-81
2023/07/21 02:42:57;;;;;;;;;;;13.30;99.90;;;;;;5085912;28;20002;-82
2023/07/21 02:45:22;;;;;;;;;;;13.30;99.90;;;;;;5084330;28;19935;-81
2023/07/21 02:47:48;;;;;;;;;;;13.30;99.90;;;;;;5086622;28;20511;-81
2023/07/21 02:50:14;;;;;;;;;;;13.30;99.90;;;;;;5066520;28;19928;-81
2023/07/21 02:52:40;;;;;;;;;;;13.20;99.90;;;;;;5071059;28;19924;-86
2023/07/21 02:55:07;;;;;;;;;;;13.20;99.90;;;;;;5086733;28;19924;-85
2023/07/21 02:57:33;;;;;;;;;;;13.20;99.90;;;;;;5066970;28;20386;-81
2023/07/21 02:59:59;;;;;;;;;;;13.20;99.90;;;;;;5068546;28;20262;-81
2023/07/21 03:02:24;;;;;;;;;;;13.20;99.90;;;;;;5084338;28;19924;-81
2023/07/21 03:04:50;;;;;;;;;;;13.20;99.90;;;;;;5081692;28;19967;-89
2023/07/21 03:07:16;;;;;;;;;;;13.10;99.90;;;;;;5084929;28;20392;-82
2023/07/21 03:09:42;;;;;;;;;;;13.10;99.90;;;;;;5067832;28;19924;-82
2023/07/21 03:12:07;;;;;;;;;;;13.00;99.90;;;;;;5089850;28;20517;-82
2023/07/21 03:14:33;;;;;;;;;;;13.00;99.90;;;;;;5085815;28;19928;-81
2023/07/21 03:16:58;;;;;;;;;;;13.00;99.90;;;;;;5086681;28;19930;-81
2023/07/21 03:19:24;;;;;;;;;;;13.00;99.90;;;;;;5062378;28;19924;-81
2023/07/21 03:21:50;;;;;;;;;;;13.00;99.90;;;;;;5081019;28;19924;-81
2023/07/21 03:24:15;;;;;;;;;;;13.00;99.90;;;;;;5085855;28;20383;-81
2023/07/21 03:26:41;;;;;;;;;;;13.00;99.90;;;;;;5081643;28;19931;-81
2023/07/21 03:29:06;;;;;;;;;;;13.00;99.90;;;;;;5064766;28;20060;-81
2023/07/21 03:31:32;;;;;;;;;;;12.90;99.90;;;;;;5083276;28;19932;-86
2023/07/21 03:33:58;;;;;;;;;;;12.90;99.90;;;;;;5081353;28;20051;-81
2023/07/21 03:36:24;;;;;;;;;;;12.90;99.90;;;;;;5083865;28;19958;-87
2023/07/21 03:38:49;;;;;;;;;;;12.90;99.90;;;;;;5085310;28;19928;-81
2023/07/21 03:41:15;;;;;;;;;;;12.90;99.90;;;;;;5084848;28;19924;-81
2023/07/21 03:43:40;;;;;;;;;;;12.80;99.90;;;;;;5061980;28;19932;-81
2023/07/21 03:46:07;;;;;;;;;;;12.80;99.90;;;;;;5083083;28;20435;-84
2023/07/21 03:48:33;;;;;;;;;;;12.80;99.90;;;;;;5082612;28;20297;-82
2023/07/21 03:51:02;;;;;;;;;;;12.70;99.90;;;;;;5068090;28;19931;-82
2023/07/21 03:53:28;;;;;;;;;;;12.70;99.90;;;;;;5084986;28;19932;-81
2023/07/21 03:55:54;;;;;;;;;;;12.70;99.90;;;;;;5084566;28;20524;-86
2023/07/21 03:58:20;;;;;;;;;;;12.70;99.90;;;;;;5083623;28;19928;-82
2023/07/21 04:00:46;;;;;;;;;;;12.60;99.90;;;;;;5067722;28;19930;-82
2023/07/21 04:03:12;;;;;;;;;;;12.60;99.90;;;;;;5069917;28;19928;-82
2023/07/21 04:05:38;;;;;;;;;;;12.60;99.90;;;;;;5084123;28;19932;-87
2023/07/21 04:08:04;;;;;;;;;;;12.60;99.90;;;;;;5081257;28;20005;-84
2023/07/21 04:10:33;;;;;;;;;;;12.60;99.90;;;;;;5069660;28;19924;-81
2023/07/21 04:12:58;;;;;;;;;;;12.70;99.90;;;;;;5091136;28;19928;-86
2023/07/21 04:15:25;;;;;;;;;;;12.70;99.90;;;;;;5091168;28;20336;-81
2023/07/21 04:17:51;;;;;;;;;;;12.70;99.90;;;;;;5085630;28;20028;-81
2023/07/21 04:20:16;;;;;;;;;;;12.80;99.90;;;;;;5069678;28;19977;-81
2023/07/21 04:22:42;;;;;;;;;;;12.80;99.90;;;;;;5084656;28;19924;-83
2023/07/21 04:25:08;;;;;;;;;;;12.80;99.90;;;;;;5067472;28;19931;-81
2023/07/21 04:27:33;;;;;;;;;;;12.90;99.90;;;;;;5067584;28;19971;-82
2023/07/21 04:29:59;;;;;;;;;;;12.90;99.90;;;;;;5083614;28;19971;-81
2023/07/21 04:32:25;;;;;;;;;;;12.90;99.90;;;;;;5066369;28;19928;-81
2023/07/21 04:34:50;;;;;;;;;;;13.00;99.90;;;;;;5081530;28;19924;-85
2023/07/21 04:37:16;;;;;;;;;;;13.00;99.90;;;;;;5065843;28;19924;-81
2023/07/21 04:39:42;;;;;;;;;;;13.00;99.90;;;;;;5085690;28;19967;-84
2023/07/21 04:42:09;;;;;;;;;;;13.10;99.90;;;;;;5066539;28;20330;-84
2023/07/21 04:44:34;;;;;;;;;;;13.10;99.90;;;;;;5067900;28;19981;-81
2023/07/21 04:47:00;;;;;;;;;;;13.20;99.90;;;;;;5068319;28;19927;-80
2023/07/21 04:49:26;;;;;;;;;;;13.20;99.90;;;;;;5087822;28;19924;-81
2023/07/21 04:51:51;;;;;;;;;;;13.30;99.90;;;;;;5083912;28;20018;-80
2023/07/21 04:54:17;;;;;;;;;;;13.30;99.90;;;;;;5088265;28;19937;-88
2023/07/21 04:56:44;;;;;;;;;;;13.40;99.90;;;;;;5089120;28;19924;-82
2023/07/21 04:59:09;;;;;;;;;;;13.40;99.90;;;;;;5070011;28;20377;-80
2023/07/21 05:01:35;;;;;;;;;;;13.50;99.90;;;;;;5088757;28;19979;-84
2023/07/21 05:04:01;;;;;;;;;;;13.50;99.90;;;;;;5072745;28;20393;-82
2023/07/21 05:06:26;;;;;;;;;;;13.60;99.90;;;;;;5056291;28;19939;-83
2023/07/21 05:08:52;;;;;;;;;;;13.70;99.90;;;;;;5066655;28;19924;-82
2023/07/21 05:11:17;;;;;;;;;;;13.80;99.90;;;;;;5088298;28;19939;-81
2023/07/21 05:13:45;;;;;;;;;;;14.00;99.90;;;;;;5070764;28;19980;-82
2023/07/21 05:16:10;;;;;;;;;;;14.20;99.90;;;;;;5093999;28;19925;-82
2023/07/21 05:18:37;;;;;;;;;;;14.40;99.90;;;;;;5073231;28;19931;-84
2023/07/21 05:21:02;;;;;;;;;;;14.50;99.90;;;;;;5092909;28;19924;-82
2023/07/21 05:23:29;;;;;;;;;;;14.60;99.90;;;;;;5091343;28;20374;-82
2023/07/21 05:26:01;;;;;;;;;;;14.90;99.90;;;;;;5076052;28;20432;-82
2023/07/21 05:28:28;;;;;;;;;;;15.30;99.90;;;;;;5092851;28;20299;-81
2023/07/21 05:30:53;;;;;;;;;;;15.60;99.90;;;;;;5073475;28;19924;-83
2023/07/21 05:33:19;;;;;;;;;;;15.90;99.90;;;;;;5076010;28;19945;-91
2023/07/21 05:35:45;;;;;;;;;;;16.10;99.90;;;;;;5076032;28;19925;-85
2023/07/21 05:38:10;;;;;;;;;;;16.20;99.90;;;;;;5073894;28;19967;-83
2023/07/21 05:40:36;;;;;;;;;;;16.50;99.90;;;;;;5073278;28;20019;-83
2023/07/21 05:43:03;;;;;;;;;;;16.80;99.90;;;;;;5092516;28;19930;-82
2023/07/21 05:45:28;;;;;;;;;;;17.00;99.90;;;;;;5091699;28;19928;-83
2023/07/21 05:47:55;;;;;;;;;;;17.10;99.90;;;;;;5068970;28;19925;-86
2023/07/21 05:50:21;;;;;;;;;;;17.30;99.90;;;;;;5067401;28;19936;-83
2023/07/21 05:52:53;;;;;;;;;;;17.60;99.90;;;;;;5085338;28;19928;-84
2023/07/21 05:55:19;;;;;;;;;;;17.90;99.90;;;;;;5066358;28;19975;-83
2023/07/21 05:57:45;;;;;;;;;;;18.30;99.90;;;;;;5066300;28;20021;-86
2023/07/21 06:00:15;;;;;;;;;;;18.70;99.90;;;;;;5068198;28;19967;-89
2023/07/21 06:02:41;;;;;;;;;;;19.20;99.90;;;;;;5065307;28;20559;-83
2023/07/21 06:05:09;;;;;;;;;;;19.60;99.90;;;;;;5087511;28;19924;-83
2023/07/21 06:07:35;;;;;;;;;;;19.90;99.90;;;;;;5086059;28;19943;-88
2023/07/21 06:10:02;;;;;;;;;;;20.30;99.90;;;;;;5069092;28;19924;-84
2023/07/21 06:12:28;;;;;;;;;;;20.50;99.90;;;;;;5084865;28;19932;-83
2023/07/21 06:14:54;;;;;;;;;;;20.80;99.90;;;;;;5074067;28;19966;-83
2023/07/21 06:17:19;;;;;;;;;;;21.00;99.90;;;;;;5092577;28;19921;-83
2023/07/21 06:19:48;;;;;;;;;;;21.30;99.90;;;;;;5092836;28;19971;-83
2023/07/21 06:22:13;;;;;;;;;;;21.60;99.90;;;;;;5090363;28;19920;-83
2023/07/21 06:24:39;;;;;;;;;;;21.90;99.90;;;;;;5074166;28;19924;-83
2023/07/21 06:27:05;;;;;;;;;;;22.10;99.90;;;;;;5071371;28;19920;-84
2023/07/21 06:29:31;;;;;;;;;;;22.30;99.90;;;;;;5082558;28;20351;-86
2023/07/21 06:31:57;;;;;;;;;;;22.50;99.90;;;;;;5085545;28;19932;-87
2023/07/21 06:34:22;;;;;;;;;;;22.70;99.90;;;;;;5068063;28;19920;-84
2023/07/21 06:36:48;;;;;;;;;;;23.00;99.90;;;;;;5086504;28;19930;-84
2023/07/21 06:39:14;;;;;;;;;;;23.20;99.90;;;;;;5063457;28;19924;-84
2023/07/21 06:41:39;;;;;;;;;;;23.30;99.90;;;;;;5085896;28;19957;-84
2023/07/21 06:44:05;;;;;;;;;;;23.20;99.90;;;;;;5086991;28;19982;-84
2023/07/21 06:46:30;;;;;;;;;;;23.10;99.90;;;;;;5088906;28;20359;-85
2023/07/21 06:48:58;;;;;;;;;;;23.10;99.90;;;;;;5073701;28;19950;-83
2023/07/21 06:51:24;;;;;;;;;;;22.90;99.90;;;;;;5085639;28;20402;-83
2023/07/21 06:53:50;;;;;;;;;;;22.60;99.90;;;;;;5085718;28;20574;-86
2023/07/21 06:56:16;;;;;;;;;;;22.10;99.90;;;;;;5067765;28;20033;-85
2023/07/21 06:58:43;;;;;;;;;;;21.60;99.90;;;;;;5053818;28;20281;-84
2023/07/21 07:01:09;;;;;;;;;;;21.30;99.90;;;;;;5084857;28;19965;-88
2023/07/21 07:03:35;;;;;;;;;;;21.10;99.90;;;;;;5067703;28;20031;-84
2023/07/21 07:06:00;;;;;;;;;;;21.10;99.90;;;;;;5073849;28;19920;-86
2023/07/21 07:08:26;;;;;;;;;;;21.50;99.90;;;;;;5092362;28;19926;-84
2023/07/21 07:10:51;;;;;;;;;;;22.00;99.90;;;;;;5091751;28;19920;-85
2023/07/21 07:13:18;;;;;;;;;;;22.50;99.90;;;;;;5073270;28;19971;-85
2023/07/21 07:15:48;;;;;;;;;;;22.90;99.90;;;;;;5074426;28;20015;-85
2023/07/21 07:18:13;;;;;;;;;;;23.20;99.90;;;;;;5073415;28;19977;-86
2023/07/21 07:20:40;;;;;;;;;;;23.50;99.90;;;;;;5084355;28;19920;-84
2023/07/21 07:23:05;;;;;;;;;;;23.80;99.90;;;;;;5087677;28;19932;-85
2023/07/21 07:25:31;;;;;;;;;;;23.90;99.90;;;;;;5074269;28;20007;-85
2023/07/21 07:27:57;;;;;;;;;;;24.10;99.90;;;;;;5077483;28;20326;-85
2023/07/21 07:30:22;;;;;;;;;;;24.20;99.90;;;;;;5089806;28;19920;-85
2023/07/21 07:32:48;;;;;;;;;;;24.20;99.90;;;;;;5073341;28;20265;-84
2023/07/21 07:35:16;;;;;;;;;;;24.30;99.90;;;;;;5091843;28;19927;-87
2023/07/21 07:37:42;;;;;;;;;;;24.40;99.90;;;;;;5089444;28;20362;-89
2023/07/21 07:40:08;;;;;;;;;;;24.50;99.90;;;;;;5072041;28;20442;-85
2023/07/21 07:42:34;;;;;;;;;;;24.70;99.90;;;;;;5091566;28;20015;-85
2023/07/21 07:45:00;;;;;;;;;;;24.80;98.50;;;;;;5079344;28;19927;-85
2023/07/21 07:47:26;;;;;;;;;;;24.80;99.60;;;;;;5089470;28;19946;-86
2023/07/21 07:49:52;;;;;;;;;;;24.90;99.90;;;;;;5090260;28;19920;-85
2023/07/21 07:52:18;;;;;;;;;;;25.00;99.90;;;;;;5089027;28;19928;-85
2023/07/21 07:54:44;;;;;;;;;;;25.10;98.90;;;;;;5072483;28;19920;-84
2023/07/21 07:57:09;;;;;;;;;;;25.30;99.40;;;;;;5090709;28;19979;-85
2023/07/21 07:59:35;;;;;;;;;;;25.50;99.60;;;;;;5085595;28;19951;-84
2023/07/21 08:02:01;;;;;;;;;;;25.60;97.00;;;;;;5065591;28;19920;-84
2023/07/21 08:04:26;;;;;;;;;;;25.70;97.60;;;;;;5075084;28;19978;-83
2023/07/21 08:06:52;;;;;;;;;;;25.80;96.20;;;;;;5089802;28;20361;-85
2023/07/21 08:09:18;;;;;;;;;;;25.80;95.70;;;;;;5073370;28;19928;-84
2023/07/21 08:11:43;;;;;;;;;;;25.80;97.10;;;;;;5091532;28;19925;-84
2023/07/21 08:14:11;;;;;;;;;;;25.90;97.70;;;;;;5090666;28;20265;-85
2023/07/21 08:16:38;;;;;;;;;;;25.90;93.40;;;;;;5090168;28;19989;-85
2023/07/21 08:19:04;;;;;;;;;;;25.80;94.20;;;;;;5069346;28;19946;-84
2023/07/21 08:21:29;;;;;;;;;;;25.80;96.20;;;;;;5089976;28;20351;-83
2023/07/21 08:23:55;;;;;;;;;;;25.80;94.40;;;;;;5092829;28;19980;-84
2023/07/21 08:26:21;;;;;;;;;;;26.00;96.20;;;;;;5093374;28;19920;-85
2023/07/21 08:28:47;;;;;;;;;;;26.10;95.00;;;;;;5075832;28;20355;-83
2023/07/21 08:31:13;;;;;;;;;;;26.10;91.10;;;;;;5087428;28;19920;-84
2023/07/21 08:33:39;;;;;;;;;;;26.10;92.70;;;;;;5091473;28;19931;-84
2023/07/21 08:36:05;;;;;;;;;;;25.80;92.10;;;;;;5086271;28;20011;-83
2023/07/21 08:38:34;;;;;;;;;;;25.50;91.30;;;;;;5094346;28;19927;-83
2023/07/21 08:41:04;;;;;;;;;;;25.50;91.90;;;;;;5095801;28;20227;-84
2023/07/21 08:43:29;;;;;;;;;;;25.60;94.80;;;;;;5091265;28;19920;-83
2023/07/21 08:45:58;;;;;;;;;;;25.80;97.00;;;;;;5079815;28;19927;-84
2023/07/21 08:48:23;;;;;;;;;;;26.10;92.90;;;;;;5071486;28;19924;-86
2023/07/21 08:50:52;;;;;;;;;;;26.20;94.70;;;;;;5076731;28;19927;-85
2023/07/21 08:53:17;;;;;;;;;;;26.30;93.60;;;;;;5093909;28;19932;-86
2023/07/21 08:55:43;;;;;;;;;;;26.30;92.30;;;;;;5090488;28;20314;-87
2023/07/21 08:58:09;;;;;;;;;;;26.10;90.90;;;;;;5092261;28;19932;-84
2023/07/21 09:00:34;;;;;;;;;;;25.70;92.60;;;;;;5094403;28;19951;-83
2023/07/21 09:03:01;;;;;;;;;;;25.10;92.30;;;;;;5058152;28;20330;-84
2023/07/21 09:05:27;;;;;;;;;;;24.40;92.70;;;;;;5092204;28;19920;-84
2023/07/21 09:07:52;;;;;;;;;;;23.80;94.00;;;;;;5094145;28;19966;-84
2023/07/21 09:10:33;;;;;;;;;;;23.70;95.60;;;;;;5076859;28;20403;-84
2023/07/21 09:13:00;;;;;;;;;;;24.00;95.90;;;;;;5094740;28;19920;-84
2023/07/21 09:15:25;;;;;;;;;;;24.50;96.40;;;;;;5089561;28;20347;-86
2023/07/21 09:17:51;;;;;;;;;;;24.70;94.80;;;;;;5073737;28;19946;-83
2023/07/21 09:20:18;;;;;;;;;;;24.80;95.50;;;;;;5084812;28;19925;-84
2023/07/21 09:22:49;;;;;;;;;;;25.00;95.40;;;;;;5092743;28;19921;-84
2023/07/21 09:25:19;;;;;;;;;;;25.20;92.10;;;;;;5086089;28;20120;-84
2023/07/21 09:27:51;;;;;;;;;;;25.00;94.30;;;;;;5094030;28;19966;-84
2023/07/21 09:30:17;;;;;;;;;;;24.70;94.90;;;;;;5079770;28;19921;-83
2023/07/21 09:32:42;;;;;;;;;;;24.50;95.30;;;;;;5076161;28;19920;-83
2023/07/21 09:35:09;;;;;;;;;;;24.40;94.50;;;;;;5075006;28;19927;-84
2023/07/21 09:37:35;;;;;;;;;;;24.40;94.80;;;;;;5067748;28;20012;-85
2023/07/21 09:40:03;;;;;;;;;;;24.30;93.50;;;;;;5093849;28;20007;-84
2023/07/21 09:42:29;;;;;;;;;;;24.20;92.40;;;;;;5075590;28;20323;-83
2023/07/21 09:44:55;;;;;;;;;;;24.00;93.50;;;;;;5073718;28;20019;-85
2023/07/21 09:47:21;;;;;;;;;;;24.00;94.10;;;;;;5090670;28;19971;-88
2023/07/21 09:49:48;;;;;;;;;;;23.90;92.90;;;;;;5091911;28;19967;-83
2023/07/21 09:52:15;;;;;;;;;;;23.90;92.70;;;;;;5092577;28;19931;-84
2023/07/21 09:54:45;;;;;;;;;;;23.90;93.00;;;;;;5089344;28;20430;-85
2023/07/21 09:57:11;;;;;;;;;;;23.80;94.80;;;;;;5075119;28;20775;-82
2023/07/21 09:59:38;;;;;;;;;;;23.80;95.20;;;;;;5089213;28;19943;-82
2023/07/21 10:02:05;;;;;;;;;;;24.00;94.30;;;;;;5082103;28;19928;-83
2023/07/21 10:04:31;;;;;;;;;;;24.20;94.10;;;;;;5088378;28;19932;-83
2023/07/21 10:06:58;;;;;;;;;;;24.40;93.00;;;;;;5074725;28;19927;-83
2023/07/21 10:09:26;;;;;;;;;;;24.50;92.20;;;;;;5070472;28;19932;-85
2023/07/21 10:11:52;;;;;;;;;;;24.60;91.50;;;;;;5065251;28;20335;-83
2023/07/21 10:14:33;;;;;;;;;;;24.50;91.50;;;;;;5065683;28;19932;-81
2023/07/21 10:16:59;;;;;;;;;;;24.70;93.60;;;;;;5080410;28;20020;-84
2023/07/21 10:19:27;;;;;;;;;;;24.70;93.10;;;;;;5083417;28;19924;-84
2023/07/21 10:21:53;;;;;;;;;;;24.60;91.10;;;;;;5055337;28;19947;-83
2023/07/21 10:24:24;;;;;;;;;;;24.60;87.70;;;;;;5087554;28;19935;-83
2023/07/21 10:26:56;;;;;;;;;;;24.50;87.00;;;;;;5074280;28;19947;-83
2023/07/21 10:29:22;;;;;;;;;;;24.60;90.60;;;;;;5074437;28;20387;-82
2023/07/21 10:31:51;;;;;;;;;;;24.90;89.70;;;;;;5091805;28;20010;-83
2023/07/21 10:34:17;;;;;;;;;;;25.00;87.40;;;;;;5074699;28;20010;-82
2023/07/21 10:36:52;;;;;;;;;;;25.20;87.80;;;;;;5074378;28;19951;-83
2023/07/21 10:39:38;;;;;;;;;;;25.30;87.90;;;;;;5082170;28;19928;-83
2023/07/21 10:42:05;;;;;;;;;;;25.40;87.60;;;;;;5090234;28;20386;-81
2023/07/21 10:44:41;;;;;;;;;;;25.60;86.00;;;;;;5091124;28;19925;-86
2023/07/21 10:47:25;;;;;;;;;;;25.80;88.00;;;;;;5073701;28;19924;-83
2023/07/21 10:49:53;;;;;;;;;;;25.80;90.20;;;;;;5065651;28;20015;-84
2023/07/21 10:52:19;;;;;;;;;;;25.40;86.80;;;;;;5055877;28;20307;-83
2023/07/21 10:54:44;;;;;;;;;;;25.20;89.30;;;;;;5093778;28;19935;-83
2023/07/21 10:57:11;;;;;;;;;;;24.90;89.60;;;;;;5093109;28;20076;-83
2023/07/21 10:59:37;;;;;;;;;;;24.60;90.70;;;;;;5073177;28;20406;-81
2023/07/21 11:02:03;;;;;;;;;;;24.40;86.50;;;;;;5091729;28;20016;-81
2023/07/21 11:04:30;;;;;;;;;;;24.20;90.50;;;;;;5074762;28;20313;-82
2023/07/21 11:06:57;;;;;;;;;;;24.20;91.50;;;;;;5092938;28;20031;-86
2023/07/21 11:09:25;;;;;;;;;;;24.40;90.40;;;;;;5093548;28;19924;-85
2023/07/21 11:11:51;;;;;;;;;;;24.50;90.20;;;;;;5069739;28;19972;-87
2023/07/21 11:14:24;;;;;;;;;;;24.50;90.50;;;;;;5061850;28;20015;-83
2023/07/21 11:17:00;;;;;;;;;;;24.40;89.50;;;;;;5094283;28;20016;-83
2023/07/21 11:19:26;;;;;;;;;;;24.30;90.60;;;;;;5080416;28;19935;-82
2023/07/21 11:21:53;;;;;;;;;;;24.10;90.40;;;;;;5078577;28;20094;-83
2023/07/21 11:24:19;;;;;;;;;;;23.90;90.10;;;;;;5078555;28;19935;-82
2023/07/21 11:26:46;;;;;;;;;;;24.10;90.60;;;;;;5091344;28;19934;-82
2023/07/21 11:29:18;;;;;;;;;;;24.10;88.10;;;;;;5097480;28;19924;-82
2023/07/21 11:31:44;;;;;;;;;;;24.20;85.90;;;;;;5096645;28;19924;-82
2023/07/21 11:34:16;;;;;;;;;;;24.20;89.00;;;;;;5095794;28;20398;-82
2023/07/21 11:36:42;;;;;;;;;;;24.30;89.40;;;;;;5077607;28;20019;-83
2023/07/21 11:39:10;;;;;;;;;;;24.50;89.20;;;;;;5076189;28;20410;-84
2023/07/21 11:41:44;;;;;;;;;;;24.60;88.80;;;;;;5054159;28;19924;-82
2023/07/21 11:44:17;;;;;;;;;;;24.60;80.40;;;;;;5090708;28;20389;-81
2023/07/21 11:46:52;;;;;;;;;;;24.80;82.20;;;;;;5092447;28;21375;-85
2023/07/21 11:49:17;;;;;;;;;;;24.90;81.00;;;;;;5089347;28;20014;-85
2023/07/21 11:51:45;;;;;;;;;;;25.10;83.40;;;;;;5073475;28;19964;-83
2023/07/21 11:54:19;;;;;;;;;;;25.10;78.50;;;;;;5090448;28;19932;-85
2023/07/21 11:56:45;;;;;;;;;;;25.30;83.70;;;;;;5074774;28;20267;-86
2023/07/21 11:59:12;;;;;;;;;;;25.40;82.90;;;;;;5089374;28;19928;-83
2023/07/21 12:01:38;;;;;;;;;;;25.60;82.10;;;;;;5098676;28;19928;-83
2023/07/21 12:04:04;;;;;;;;;;;25.70;79.50;;;;;;5082612;28;19992;-85
2023/07/21 12:06:30;;;;;;;;;;;25.60;79.00;;;;;;5095652;28;19931;-84
2023/07/21 12:08:57;;;;;;;;;;;25.60;80.90;;;;;;5100183;28;19924;-83
2023/07/21 12:11:23;;;;;;;;;;;25.60;78.10;;;;;;5081655;28;20019;-85
2023/07/21 12:13:49;;;;;;;;;;;25.70;77.40;;;;;;5086316;28;19924;-85
2023/07/21 12:16:16;;;;;;;;;;;25.60;79.30;;;;;;5067661;28;19935;-83
2023/07/21 12:18:42;;;;;;;;;;;25.20;77.90;;;;;;5099777;28;19924;-86
2023/07/21 12:21:08;;;;;;;;;;;24.80;79.30;;;;;;5096461;28;19989;-88
2023/07/21 12:23:35;;;;;;;;;;;24.60;79.10;;;;;;5077571;28;20431;-87
2023/07/21 12:26:01;;;;;;;;;;;24.60;79.10;;;;;;5079051;28;20010;-86
2023/07/21 12:28:29;;;;;;;;;;;24.70;78.00;;;;;;5097537;28;19924;-88
2023/07/21 12:30:55;;;;;;;;;;;24.60;75.90;;;;;;5078950;28;20395;-85
2023/07/21 12:33:21;;;;;;;;;;;24.50;79.70;;;;;;5079659;28;19938;-81
2023/07/21 12:35:47;;;;;;;;;;;24.50;81.20;;;;;;5095307;28;20019;-83
2023/07/21 12:38:13;;;;;;;;;;;24.50;77.70;;;;;;5089705;28;19924;-83
2023/07/21 12:40:39;;;;;;;;;;;24.50;80.60;;;;;;5095010;28;19932;-87
2023/07/21 12:43:05;;;;;;;;;;;24.50;80.20;;;;;;5093256;28;19939;-82
2023/07/21 12:45:31;;;;;;;;;;;24.50;80.90;;;;;;5091839;28;19924;-85
2023/07/21 12:47:57;;;;;;;;;;;24.20;76.90;;;;;;5077604;28;19931;-84
2023/07/21 12:50:22;;;;;;;;;;;24.00;81.20;;;;;;5091129;28;19924;-82
2023/07/21 12:52:48;;;;;;;;;;;23.80;80.90;;;;;;5091547;28;19932;-83
2023/07/21 12:55:13;;;;;;;;;;;23.60;79.80;;;;;;5092253;28;19931;-85
2023/07/21 12:57:40;;;;;;;;;;;23.60;81.80;;;;;;5094843;28;19928;-87
2023/07/21 13:00:06;;;;;;;;;;;23.50;80.80;;;;;;5076197;28;20342;-82
2023/07/21 13:02:32;;;;;;;;;;;23.40;79.60;;;;;;5094089;28;19924;-81
2023/07/21 13:04:58;;;;;;;;;;;23.30;81.20;;;;;;5093651;28;19973;-81
2023/07/21 13:07:23;;;;;;;;;;;23.30;83.10;;;;;;5092138;28;19931;-85
2023/07/21 13:09:49;;;;;;;;;;;23.40;84.40;;;;;;5095037;28;20378;-84
2023/07/21 13:12:15;;;;;;;;;;;23.50;84.20;;;;;;5096159;28;20019;-85
2023/07/21 13:14:40;;;;;;;;;;;23.40;84.50;;;;;;5093006;28;20001;-84
2023/07/21 13:17:06;;;;;;;;;;;23.30;82.50;;;;;;5087146;28;19995;-85
2023/07/21 13:19:31;;;;;;;;;;;23.00;83.30;;;;;;5073951;28;19924;-83
2023/07/21 13:21:57;;;;;;;;;;;22.70;84.60;;;;;;5094141;28;19931;-84
2023/07/21 13:24:24;;;;;;;;;;;22.40;86.20;;;;;;5091653;28;20247;-85
2023/07/21 13:26:50;;;;;;;;;;;22.10;87.50;;;;;;5088285;28;21395;-86
2023/07/21 13:29:15;;;;;;;;;;;21.80;89.00;;;;;;5091676;28;19931;-87
2023/07/21 13:31:42;;;;;;;;;;;21.50;90.00;;;;;;5094435;28;19924;-83
2023/07/21 13:34:08;;;;;;;;;;;21.20;90.60;;;;;;5096340;28;19928;-83
2023/07/21 13:36:34;;;;;;;;;;;20.90;91.80;;;;;;5072257;28;19935;-84
2023/07/21 13:38:59;;;;;;;;;;;20.70;92.90;;;;;;5094906;28;19997;-85
2023/07/21 13:41:32;;;;;;;;;;;20.40;95.80;;;;;;5078784;28;19932;-87
2023/07/21 13:43:58;;;;;;;;;;;19.90;99.00;;;;;;5092998;28;19928;-88
2023/07/21 13:46:24;;;;;;;;;;;19.50;99.90;;;;;;5099784;28;19939;-86
2023/07/21 13:48:50;;;;;;;;;;;19.10;99.90;;;;;;5077325;28;19924;-87
2023/07/21 13:51:16;;;;;;;;;;;18.80;99.90;;;;;;5094525;28;20023;-87
2023/07/21 13:53:44;;;;;;;;;;;18.50;99.90;;;;;;5095736;28;19930;-86
2023/07/21 13:56:10;;;;;;;;;;;18.40;99.90;;;;;;5079562;28;20047;-87
2023/07/21 13:58:35;;;;;;;;;;;18.30;99.90;;;;;;5078370;28;19928;-86
2023/07/21 14:01:01;;;;;;;;;;;18.10;99.90;;;;;;5094688;28;19928;-87
2023/07/21 14:03:27;;;;;;;;;;;18.10;99.90;;;;;;5094684;28;19963;-86
2023/07/21 14:05:54;;;;;;;;;;;18.10;99.90;;;;;;5078054;28;20022;-86
2023/07/21 14:08:20;;;;;;;;;;;18.10;99.90;;;;;;5096163;28;19928;-86
2023/07/21 14:10:51;;;;;;;;;;;18.10;99.90;;;;;;5095334;28;20052;-90
2023/07/21 14:13:17;;;;;;;;;;;18.10;99.90;;;;;;5074031;28;19932;-86